Marquand, Missouri
Current Conditions -  °F | °C
As of 10:15 PM on Monday 22 Dec 2014 (Local Time) from KFAM Reporting Station
Overcast Overcast  
Wind Chill: 52°   Ceiling: 1600
Heat Index: 52°   Visibility: 7mi
Dew Point: 48°   Wind: 9mph
Humidity: 88%   Direction: 170°S
Pressure: 29.58"   Gusts: NA
Location:  37.43°N, 90.17°W
Report Text: KFAM 230415Z AUTO 17008KT 7SM SCT006 BKN016 OVC049 11/09 A2958 RMK AO1
Loading
Personal Weather Stations






























Interactive Weather Map New forecast layout! Learn more

10-Day Weather Forecast

Advertisements
Track Severe Weather on mobile